aviador You're here:

KBHB Decoded Metar

BAR HARBOR in ME, USA
Report Time2017-04-25 07:56:00
UTC Time2017-04-25 08:31:00
Flight Rules vfr VFR
Wind360° at 04 kt
W.Decomp.*RWY 04: 3.7 kt HW 1.4 kt LCW
RWY 35: 3.5 kt HW 1.9 kt RCW
Visibility9999 m
Phenomena:N/A
Clouds:N/A
CeilingNone
Temp02°C (ISA -13)
Dew Point02°C (100% RH)
AAT-1.1°C
QNH1027 hPa
Density Alt-1,857 ft
Elevation85 ft
Report Wrong Elevation
Raw Report
METAR KBHB 250756Z AUTO 36004KT 10SM CLR 02/02 A3033 RMK AO2 SLP275
T00220017 FZRANO=

Extra information for KBHB:More info

Metar Taf Metar & Taf Last 4 Metars F.Rules Stats Wind Profile Meteogram Temp Stats Airport Information Weather charts Add Link Nearby VenuesMetar ALERT Operation Metar Decoded Social comments

AIRNAV info for KBHB